logo
App data

East Tower - Takashi

Store | Hub | SteamDB | Site
Developer: roseVeRte Publisher: roseVeRte
Genre: Adventure, Casual, Indie, Simulation
Languages: English, German, Japanese, French
Tags: Indie (23), Adventure (23), Simulation (22), Casual (22), Visual Novel (19), Otome (14)
Category: Single-player, Steam Achievements, Steam Trading Cards, Steam Cloud
Release date: May 27, 2015
Price: $5.99
Owners: 0 .. 20,000
Followers: 158
Peak concurrent players yesterday: 1
Playtime total: 04:00 (average) 03:41 (median)

Steam Spy is still in beta, so expect major bugs.

Owners data:

Access restricted.

This feature is only available to users with special access rights. Sorry.

If you want to proceed, you need to register or log in first and then back Steam Spy on Patreon. Look for Indie or Pro pledge.

Don't forget to use the same email as on Steam Spy!

Audience in 2 weeks:

Access restricted.

This feature is only available to users with special access rights. Sorry.

If you want to proceed, you need to register or log in first and then back Steam Spy on Patreon. Look for Indie or Pro pledge.

Don't forget to use the same email as on Steam Spy!

Peak daily concurrent players:

CCU data courtesy of SteamDB. Used with permission.

Hourly concurrent players:

YouTube:

The views data is based on top 50 videos uploaded last week. Actual number of views might be more than the number shown.

The displayed number of videos uploaded yesterday is limited to 50, so if there were more videos uploaded, the number will still show 50.

If the game has commonly used word as its name (like "FEAR" or "Volume") its number of Youtube views might be wrong.

Games similar to this one:

# Game Release date
Price
Score rank
(Userscore / Metascore)
Owners
Players
Playtime (Median)
1 Highrise Heroes: Word Challenge Jan 8, 2016 $4.99N/A (N/A)0 .. 20,0000%00:00 (00:00)
2 Dark Echo May 11, 2015 $2.9985% (93%)20,000 .. 50,0000%00:00 (00:00)
3 Rusty Lake Hotel Jan 29, 2016 $1.9985% (93%/65%)50,000 .. 100,0004.17%01:45 (00:35)
4 School of Talent: SUZU-ROUTE Feb 23, 2017 $8.99N/A (N/A)0 .. 20,0000%00:00 (00:00)
5 Reflection of Mine Feb 24, 2017 $7.99N/A (N/A)0 .. 20,0002.86%02:28 (00:49)
6 199X Mar 10, 2015 $1.9969% (89%)0 .. 20,0000%00:00 (00:00)
7 Stories Untold Feb 27, 2017 $9.9965% (88%/81%)100,000 .. 200,0000%00:00 (00:00)
8 Mr. Pumpkin Adventure Jul 8, 2016 $3.9962% (87%)0 .. 20,0000%00:00 (00:00)
9 Night Shift Feb 23, 2015 $4.99N/A (N/A)0 .. 20,0000%00:00 (00:00)
10 Breathing Fear Oct 7, 2016 $2.99N/A (N/A)20,000 .. 50,0002.22%00:09 (00:03)
11 The Narrator Is a DICK Jun 14, 2016 $4.9948% (82%)0 .. 20,0000%00:00 (00:00)
12 Serafina's Crown Mar 15, 2016 $7.99N/A (N/A)20,000 .. 50,0000%00:00 (00:00)
13 Dead Secret Mar 28, 2016 $14.9946% (81%)20,000 .. 50,0000%00:00 (00:00)
14 The Rivers of Alice - Extended Version Nov 16, 2015 $7.99N/A (N/A)0 .. 20,0000%00:00 (00:00)
15 Shutter Apr 2, 2015 $0.9938% (77%)20,000 .. 50,0000%00:00 (00:00)
16 CRIMSON ROOM DECADE Jun 9, 2016 $9.99N/A (N/A)0 .. 20,0000%00:00 (00:00)
17 Shadow Puppeteer Sep 29, 2014 $14.99N/A (N/A/57%)50,000 .. 100,0000%00:00 (00:00)
18 Scrap Garden May 6, 2016 $9.9935% (75%/58%)50,000 .. 100,0000%00:00 (00:00)
19 Unearthed Inc: The Lost Temple Dec 16, 2016 $7.49N/A (N/A)0 .. 20,0000%00:00 (00:00)
20 Blueberry Garden Jun 2009 $4.99N/A (N/A/68%)20,000 .. 50,0000%00:00 (00:00)
21 samurai_jazz Jan 27, 2015 $0.9931% (73%)20,000 .. 50,0000%00:00 (00:00)
22 Planetship Sep 24, 2015 $8.99N/A (N/A)0 .. 20,0000%00:00 (00:00)
23 The Adventures of Fatman Oct 1, 2015 $1.99N/A (N/A)0 .. 20,0000%00:00 (00:00)
24 Draw Slasher Oct 13, 2016 $4.9928% (71%)0 .. 20,0000%00:00 (00:00)
25 You Deserve Aug 19, 2016 $0.99N/A (N/A)0 .. 20,0000%00:00 (00:00)
26 Hamilton's Great Adventure May 31, 2011 $9.9925% (69%/77%)100,000 .. 200,0000%00:00 (00:00)
27 Enola Sep 18, 2014 $14.9924% (68%)20,000 .. 50,0004.35%03:01 (01:50)
28 Pneuma: Breath of Life Feb 27, 2015 $19.9924% (68%/63%)20,000 .. 50,0000%00:00 (00:00)
29 City Quest Aug 20, 2015 $9.99N/A (N/A)0 .. 20,0000%00:00 (00:00)
30 The Butterfly Sign Dec 13, 2016 $4.9920% (65%)100,000 .. 200,0000%00:00 (00:00)
31 Catmouth Island Dec 31, 2014 $0.99N/A (N/A)20,000 .. 50,0000%00:00 (00:00)
32 Sideway New York Nov 15, 2011 $9.99N/A (N/A/71%)50,000 .. 100,0000%00:00 (00:00)
33 Maria the Witch Mar 1, 2016 $4.99N/A (N/A)0 .. 20,0000%00:00 (00:00)
34 Space Incident Sep 23, 2016 $3.99N/A (N/A)100,000 .. 200,0000.7%03:48 (01:51)
35 Little Jack's Adventures Dec 28, 2016 $0.99N/A (N/A)50,000 .. 100,0000%00:00 (00:00)
36 ENKI Jul 31, 2015 $4.9911% (55%/43%)0 .. 20,0000%00:00 (00:00)
37 Rock Zombie Nov 20, 2014 $6.99N/A (N/A)0 .. 20,0000%00:00 (00:00)
38 Not without my donuts Apr 28, 2015 $3.99N/A (N/A)20,000 .. 50,0000%00:00 (00:00)
39 Alchemist Dec 29, 2016 $2.99N/A (N/A)20,000 .. 50,0000.79%04:22 (01:27)
40 Last Inua Dec 11, 2014 $7.99N/A (N/A)20,000 .. 50,0000%00:00 (00:00)
41 'n Verlore Verstand Apr 5, 2016 $14.99N/A (N/A)0 .. 20,0000%00:00 (00:00)
42 Ball of Light Dec 9, 2016 $3.99N/A (N/A)200,000 .. 500,0000%00:00 (00:00)
43 Lex Mortis Feb 9, 2015 $4.995% (43%)200,000 .. 500,0000%00:00 (00:00)
44 Krampus Oct 18, 2016 $0.99N/A (N/A)100,000 .. 200,0000%00:00 (00:00)
45 Shattered Haven Mar 18, 2013 $9.99N/A (N/A/59%)100,000 .. 200,0000%00:00 (00:00)
46 Magdalena Feb 22, 2016 $2.993% (36%)200,000 .. 500,0000%00:00 (00:00)
47 Bibou Apr 29, 2016 $0.79N/A (N/A)200,000 .. 500,0000%00:00 (00:00)
48 Time Of Silence Dec 6, 2016 $0.99N/A (N/A)100,000 .. 200,0004.07%03:11 (03:38)
49 Tesla Breaks the World! Nov 26, 2014 $9.99N/A (N/A)20,000 .. 50,0000%00:00 (00:00)
50 The Spirit Underneath Jan 2, 2017 $0.99N/A (N/A)200,000 .. 500,0000.43%04:33 (03:02)
51 Pillar May 29, 2015 $7.99N/A (N/A)20,000 .. 50,0001.11%04:28 (01:29)
52 Lone Leader Oct 28, 2016 $0.99N/A (N/A)100,000 .. 200,0000.94%08:33 (09:02)
53 Yasai Ninja Jul 21, 2015 $1.99N/A (N/A)0 .. 20,0000%00:00 (00:00)
54 Worst Case Z Apr 15, 2016 $2.59N/A (N/A)0 .. 20,0000%00:00 (00:00)
55 Incognito Mar 23, 2015 $7.99N/A (N/A)20,000 .. 50,0000%00:00 (00:00)
56 Dungeon Lurk II - Leona Oct 27, 2014 $9.99N/A (N/A)0 .. 20,0000%00:00 (00:00)
57 Chowderchu Jan 4, 2016 $2.99N/A (N/A)20,000 .. 50,00026.67%04:09 (04:28)
58 Replay - VHS is not dead Jul 9, 2015 $9.99N/A (N/A)0 .. 20,0000%00:00 (00:00)
59 Haywire on Fuel Station Zeta Sep 24, 2015 $3.99N/A (N/A)20,000 .. 50,0000%00:00 (00:00)
60 A Detective's Novel Jul 28, 2016 $0.99N/A (N/A)200,000 .. 500,0002.31%04:52 (05:23)

Owners of this game also own:

Access restricted.

This feature is only available to users with special access rights. Sorry.

If you want to proceed, you need to register or log in first and then back Steam Spy on Patreon. Look for Indie or Pro pledge.

Don't forget to use the same email as on Steam Spy!

Playtime distribution:

Access restricted.

This feature is only available to users with special access rights. Sorry.

If you want to proceed, you need to register or log in first and then back Steam Spy on Patreon. Look for Indie or Pro pledge.

Don't forget to use the same email as on Steam Spy!

Playtime (2 weeks):

Access restricted.

This feature is only available to users with special access rights. Sorry.

If you want to proceed, you need to register or log in first and then back Steam Spy on Patreon. Look for Indie or Pro pledge.

Don't forget to use the same email as on Steam Spy!

User reviews:

Login required.

Please register or log in to see this information.